Aérodrome :
LOGIN :

S'inscrire | Disclaimer

   EN    FR    IT 

 










Légende :    VFR   VFR Marginal   IFR   IFR Intensif   IFR Très Intensif
Visi : 
Plafond : 
>= 8 km
>= 3000ft
5 à 8 km
1000 à 3000 ft
1500m à 5 km
500 à 1000 ft
800 à 1500m
200 à 500 ft
< 800m
< 200 ft
Symboles :   Orages  Brouillard  Fortes neiges  Fortes précipitations  Vent > 20 kt
SIGMETs :   Divers  Orages  Givrage  Turbulence  Onde Orograph.  Cendres Volcan.






- Altitude de l'aérodrome : 2220 ft


LOXZ - Zeltweg AB

DERNIER METAR :
  • 291750Z 01005KT 330V060 30KM FEW045SC BKN060SC 13/03 Q1022 NOSIG

METARs EXPIRÉS :
  • 291650Z 36008KT 330V030 30KM FEW045SC BKN060SC 14/03 Q1022 NOSIG
  • 291550Z 13004KT 090V210 30KM FEW045SC BKN060SC 15/04 Q1022 NOSIG
  • 291450Z 12004KT 080V210 30KM FEW045SC BKN060SC 16/05 Q1022 NOSIG

TAF COR TAF LOXZ
Valide du 29 à 12h jusqu'au 29 à 21h UTC


291115Z 2912/2921 07012KT 9999 SCT050 BKN070
TEMPO 2912/2918 -SHRA SCT040 BKN050
BECMG 2916/2918 VRB03KT



MET'MAP, la Météo Aéronautique d'un coup d'oeil ! - Copyright ORBIFLY Décembre 2007 - Disclaimer

ORBIFLY MET'MAP TEAM :

Programmation & Développement : Alexandra Zaïnal
Sur une idée originale de : Baudouin d'Aumeries
Assistance à la programmation : Marc-Olivier Méhu
Soutien technique & logistique : Manuel Goepfert

Contact : metmap@orbifly.com




SOURCES & CREDITS :

   NOAA